Time;durP1;ratioP1;P1;durP2;ratioP2;P2;SDS_P1;SDS_P2;PMS_P1;PMS_P2;Temp;Humidity;BMP_temperature;BMP_pressure;BME280_temperature;BME280_humidity;BME280_pressure;Samples;Min_cycle;Max_cycle;Signal;HPM_P1;HPM_P2
2021/12/18 00:01:08;;;;;;;139.80;30.52;;;;;;;-0.51;100.00;99441.84;5030523;28;20080;-75
2021/12/18 00:03:34;;;;;;;121.25;30.48;;;;;;;-0.43;100.00;99436.38;5030896;28;20057;-77
2021/12/18 00:06:00;;;;;;;96.97;28.88;;;;;;;-0.51;100.00;99442.69;5031179;28;20065;-77
2021/12/18 00:08:26;;;;;;;147.82;32.42;;;;;;;-0.54;100.00;99453.81;5030845;28;20048;-76
2021/12/18 00:10:53;;;;;;;128.85;30.23;;;;;;;-0.51;100.00;99442.69;5034490;28;20425;-77
2021/12/18 00:13:19;;;;;;;133.27;30.27;;;;;;;-0.51;100.00;99456.13;5036315;28;20029;-77
2021/12/18 00:15:45;;;;;;;88.72;28.27;;;;;;;-0.35;100.00;99455.09;5033877;28;20497;-76
2021/12/18 00:18:10;;;;;;;88.95;29.17;;;;;;;-0.33;100.00;99451.19;5034778;28;20040;-76
2021/12/18 00:20:37;;;;;;;85.95;26.88;;;;;;;-0.19;100.00;99458.34;5034490;28;20026;-77
2021/12/18 00:23:03;;;;;;;128.43;29.90;;;;;;;-0.17;100.00;99455.50;5034690;28;20070;-76
2021/12/18 00:25:29;;;;;;;84.57;27.42;;;;;;;-0.16;100.00;99463.34;5034927;28;20106;-77
2021/12/18 00:27:54;;;;;;;87.28;26.88;;;;;;;-0.09;100.00;99458.91;5034877;28;20030;-76
2021/12/18 00:30:20;;;;;;;95.88;27.75;;;;;;;-0.15;100.00;99451.59;5033132;28;20029;-76
2021/12/18 00:32:46;;;;;;;80.32;26.80;;;;;;;-0.20;100.00;99456.72;5034311;28;20029;-77
2021/12/18 00:35:11;;;;;;;76.40;27.05;;;;;;;-0.11;100.00;99466.31;5034253;28;20083;-75
2021/12/18 00:37:37;;;;;;;151.43;27.13;;;;;;;-0.37;100.00;99454.41;5032727;28;20494;-79
2021/12/18 00:40:08;;;;;;;161.88;30.67;;;;;;;-0.40;100.00;99454.81;5034339;28;20100;-77
2021/12/18 00:42:45;;;;;;;131.40;29.13;;;;;;;-0.33;100.00;99456.56;5033695;28;20102;-78
2021/12/18 00:45:15;;;;;;;113.18;29.13;;;;;;;-0.23;100.00;99465.16;5034341;28;20021;-77
2021/12/18 00:47:41;;;;;;;96.60;27.50;;;;;;;-0.17;100.00;99460.88;5034586;28;20034;-78
2021/12/18 00:50:11;;;;;;;120.65;28.92;;;;;;;-0.21;100.00;99460.41;5034583;28;20419;-75
2021/12/18 00:52:37;;;;;;;87.38;28.60;;;;;;;-0.21;100.00;99465.78;5034623;28;20049;-80
2021/12/18 00:55:04;;;;;;;98.28;28.10;;;;;;;-0.19;100.00;99468.31;5032988;28;20832;-77
2021/12/18 00:57:29;;;;;;;89.95;27.77;;;;;;;-0.26;100.00;99470.91;5034671;28;20052;-76
2021/12/18 00:59:59;;;;;;;139.20;28.65;;;;;;;-0.38;100.00;99479.66;5034308;28;20545;-76
2021/12/18 01:02:25;;;;;;;110.80;29.55;;;;;;;-0.42;100.00;99484.56;5034345;28;20483;-77
2021/12/18 01:04:51;;;;;;;97.03;30.60;;;;;;;-0.44;100.00;99483.94;5032555;28;20144;-79
2021/12/18 01:07:16;;;;;;;124.28;32.22;;;;;;;-0.34;100.00;99487.13;5033115;28;20060;-78
2021/12/18 01:12:32;;;;;;;99.45;28.77;;;;;;;-0.47;100.00;99494.22;5033998;28;20601;-76
2021/12/18 01:15:22;;;;;;;92.50;29.33;;;;;;;-0.60;100.00;99497.56;5033835;28;20021;-77
2021/12/18 01:23:17;;;;;;;225.18;35.15;;;;;;;-0.85;100.00;99506.91;5035598;28;20123;-79
2021/12/18 01:25:43;;;;;;;217.40;35.10;;;;;;;-0.93;100.00;99512.34;5048139;28;20470;-77
2021/12/18 01:28:09;;;;;;;108.70;33.15;;;;;;;-0.72;100.00;99520.53;5034298;28;20036;-78
2021/12/18 01:30:34;;;;;;;108.70;32.13;;;;;;;-0.67;100.00;99527.00;5033093;28;20433;-80
2021/12/18 01:33:00;;;;;;;202.73;37.22;;;;;;;-0.64;100.00;99525.81;5033741;28;20116;-77
2021/12/18 01:35:25;;;;;;;152.10;33.78;;;;;;;-0.63;100.00;99525.59;5034033;28;20037;-78
2021/12/18 01:37:51;;;;;;;106.90;32.15;;;;;;;-0.49;100.00;99518.56;5034048;28;20116;-77
2021/12/18 01:40:18;;;;;;;110.50;32.80;;;;;;;-0.56;100.00;99518.47;5032943;28;20032;-76
2021/12/18 01:53:12;;;;;;;133.52;34.67;;;;;;;-0.68;100.00;99536.06;5036946;28;20036;-78
2021/12/18 01:55:39;;;;;;;186.18;36.47;;;;;;;-0.75;100.00;99527.06;5039891;28;20045;-81
2021/12/18 01:58:06;;;;;;;133.77;34.35;;;;;;;-0.64;100.00;99518.56;5039010;28;20500;-77
2021/12/18 02:00:36;;;;;;;109.57;34.95;;;;;;;-0.53;100.00;99519.94;5034532;28;20120;-76
2021/12/18 02:03:02;;;;;;;90.80;29.05;;;;;;;-0.50;100.00;99518.78;5034705;28;20049;-78
2021/12/18 02:05:28;;;;;;;130.57;33.63;;;;;;;-0.53;100.00;99533.38;5033724;28;20036;-77
2021/12/18 02:07:53;;;;;;;105.03;31.77;;;;;;;-0.52;100.00;99521.63;5033287;28;20021;-76
2021/12/18 02:10:22;;;;;;;157.95;29.40;;;;;;;-0.50;100.00;99511.50;5033126;28;20529;-79
2021/12/18 02:20:50;;;;;;;90.32;29.88;;;;;;;-0.43;100.00;99503.53;5033092;28;20528;-76
2021/12/18 02:23:16;;;;;;;144.93;33.53;;;;;;;-0.32;100.00;99511.16;5032809;28;20033;-78
2021/12/18 02:25:44;;;;;;;140.35;29.73;;;;;;;-0.33;100.00;99504.94;5032847;28;20018;-79
2021/12/18 02:28:22;;;;;;;94.38;27.50;;;;;;;-0.33;100.00;99507.63;5032772;28;20021;-75
2021/12/18 02:30:51;;;;;;;97.88;29.42;;;;;;;-0.41;100.00;99506.91;5032283;28;20101;-76
2021/12/18 02:33:16;;;;;;;97.05;28.25;;;;;;;-0.29;100.00;99511.63;5030360;28;20064;-72
2021/12/18 02:35:49;;;;;;;128.40;31.00;;;;;;;-0.28;100.00;99515.13;5032830;28;20057;-73
2021/12/18 02:38:57;;;;;;;73.35;24.58;;;;;;;-0.27;100.00;99506.88;5032353;28;20040;-75
2021/12/18 02:41:29;;;;;;;93.03;27.92;;;;;;;-0.24;100.00;99509.19;5032639;28;20441;-76
2021/12/18 02:43:59;;;;;;;67.13;24.67;;;;;;;-0.22;100.00;99520.56;5035602;28;20029;-76
2021/12/18 02:46:24;;;;;;;63.78;23.63;;;;;;;-0.25;100.00;99501.31;5036281;28;20075;-77
2021/12/18 02:48:52;;;;;;;88.00;23.65;;;;;;;-0.20;100.00;99510.47;5036383;28;20045;-76
2021/12/18 02:51:19;;;;;;;54.25;21.48;;;;;;;-0.18;100.00;99516.50;5034995;28;20025;-74
2021/12/18 02:53:52;;;;;;;65.45;24.13;;;;;;;-0.21;100.00;99507.97;5101269;27;1570526;-78
2021/12/18 02:56:23;;;;;;;63.78;22.90;;;;;;;-0.17;100.00;99510.09;5130713;27;20040;-74
2021/12/18 02:58:50;;;;;;;74.53;24.95;;;;;;;-0.21;100.00;99507.97;5129532;27;20034;-76
2021/12/18 03:01:20;;;;;;;62.72;23.50;;;;;;;-0.15;100.00;99501.84;5129258;27;20027;-77
2021/12/18 03:03:47;;;;;;;63.72;23.08;;;;;;;-0.08;100.00;99498.22;5129253;27;20468;-78
2021/12/18 03:27:17;;;;;;;64.45;23.08;;;;;;;-0.16;100.00;99517.13;5128704;27;20035;-76
2021/12/18 03:29:42;;;;;;;62.35;22.25;;;;;;;-0.24;100.00;99522.63;5128894;27;20023;-78
2021/12/18 03:32:08;;;;;;;82.43;23.30;;;;;;;-0.20;100.00;99520.41;5127463;28;20038;-76
2021/12/18 03:34:33;;;;;;;66.80;22.65;;;;;;;-0.26;100.00;99516.63;5129052;27;20035;-76
2021/12/18 03:36:59;;;;;;;59.28;20.67;;;;;;;-0.17;100.00;99512.78;5129363;27;20015;-81
2021/12/18 03:39:25;;;;;;;71.97;23.60;;;;;;;-0.14;100.00;99509.72;5128482;27;20024;-75
2021/12/18 03:41:51;;;;;;;78.05;23.17;;;;;;;-0.15;100.00;99505.38;5128444;27;20495;-76
2021/12/18 03:44:16;;;;;;;67.43;23.77;;;;;;;-0.20;100.00;99506.97;5128741;27;20415;-76
2021/12/18 03:46:41;;;;;;;52.50;20.77;;;;;;;-0.17;100.00;99523.53;5128498;28;20391;-76
2021/12/18 03:49:07;;;;;;;51.33;21.75;;;;;;;-0.14;100.00;99525.84;5128318;28;20465;-76
2021/12/18 03:51:32;;;;;;;79.32;22.92;;;;;;;-0.27;100.00;99517.63;5127258;28;20020;-78
2021/12/18 03:53:58;;;;;;;63.67;21.83;;;;;;;-0.32;100.00;99506.63;5128310;27;20047;-76
2021/12/18 03:56:23;;;;;;;58.55;22.50;;;;;;;-0.23;100.00;99499.25;5128269;27;20028;-77
2021/12/18 03:58:49;;;;;;;64.40;20.38;;;;;;;-0.34;100.00;99503.25;5128469;27;20028;-79
2021/12/18 04:01:14;;;;;;;61.70;22.65;;;;;;;-0.29;100.00;99516.97;5113107;28;20020;-78
2021/12/18 04:03:39;;;;;;;62.50;24.13;;;;;;;-0.30;100.00;99518.00;5123786;28;20413;-79
2021/12/18 04:06:05;;;;;;;58.13;21.75;;;;;;;-0.21;100.00;99507.97;5107577;28;20032;-77
2021/12/18 04:08:30;;;;;;;84.75;23.42;;;;;;;-0.33;100.00;99514.84;5097192;28;20028;-77
2021/12/18 04:10:56;;;;;;;69.57;20.55;;;;;;;-0.29;100.00;99516.16;5098581;28;20024;-76
2021/12/18 04:13:21;;;;;;;49.80;19.70;;;;;;;-0.27;100.00;99520.31;5094285;28;20215;-75
2021/12/18 04:15:47;;;;;;;84.65;22.23;;;;;;;-0.36;100.00;99534.88;5098466;28;20024;-76
2021/12/18 04:18:12;;;;;;;67.90;22.70;;;;;;;-0.33;100.00;99525.59;5106098;28;20020;-78
2021/12/18 04:20:37;;;;;;;62.83;20.83;;;;;;;-0.31;100.00;99532.44;5118520;28;20031;-78
2021/12/18 04:23:03;;;;;;;53.05;21.40;;;;;;;-0.30;100.00;99527.91;5118168;28;20024;-76
2021/12/18 04:25:28;;;;;;;53.67;21.92;;;;;;;-0.31;100.00;99519.00;5115868;28;20480;-76
2021/12/18 04:27:54;;;;;;;51.20;18.95;;;;;;;-0.38;100.00;99507.38;5114437;28;20023;-77
2021/12/18 04:30:19;;;;;;;44.55;19.15;;;;;;;-0.31;100.00;99508.25;5114168;28;20030;-76
2021/12/18 04:32:45;;;;;;;50.58;19.38;;;;;;;-0.29;100.00;99511.63;5112864;28;20031;-80
2021/12/18 04:35:11;;;;;;;49.42;20.67;;;;;;;-0.24;100.00;99511.88;5114187;28;20073;-81
2021/12/18 04:37:36;;;;;;;98.63;23.60;;;;;;;-0.35;100.00;99507.00;5114180;28;20024;-77
2021/12/18 04:40:03;;;;;;;72.47;23.67;;;;;;;-0.25;100.00;99512.06;5114225;28;20030;-76
2021/12/18 04:42:29;;;;;;;93.13;26.55;;;;;;;-0.36;100.00;99526.81;5112835;28;20027;-78
2021/12/18 04:44:54;;;;;;;247.32;29.40;;;;;;;-0.46;100.00;99542.38;5114339;28;20403;-77
2021/12/18 04:47:20;;;;;;;101.03;25.95;;;;;;;-0.69;100.00;99528.22;5115117;27;20028;-77
2021/12/18 04:49:45;;;;;;;114.47;26.50;;;;;;;-0.53;100.00;99535.25;5114249;28;20038;-75
2021/12/18 04:52:11;;;;;;;144.18;28.30;;;;;;;-0.49;100.00;99537.38;5113790;28;20495;-76
2021/12/18 04:54:36;;;;;;;96.95;25.50;;;;;;;-0.49;100.00;99542.75;5114726;28;20065;-74
2021/12/18 04:57:02;;;;;;;177.15;28.30;;;;;;;-0.49;100.00;99531.16;5115650;28;20028;-76
2021/12/18 04:59:27;;;;;;;76.13;24.85;;;;;;;-0.50;100.00;99524.13;5113824;28;20492;-75
2021/12/18 05:01:53;;;;;;;93.07;24.80;;;;;;;-0.41;100.00;99515.81;5115115;28;20027;-80
2021/12/18 05:04:20;;;;;;;60.47;21.73;;;;;;;-0.50;100.00;99508.81;5117150;28;20023;-82
2021/12/18 05:06:47;;;;;;;65.13;22.60;;;;;;;-0.45;100.00;99519.88;5119619;28;20020;-82
2021/12/18 05:09:14;;;;;;;52.75;21.98;;;;;;;-0.51;100.00;99520.63;5119200;28;20020;-81
2021/12/18 05:11:41;;;;;;;161.55;26.25;;;;;;;-0.45;100.00;99521.72;5118162;28;20126;-75
2021/12/18 05:14:07;;;;;;;162.35;26.05;;;;;;;-0.39;100.00;99524.50;5122711;28;20027;-77
2021/12/18 05:16:33;;;;;;;77.90;22.80;;;;;;;-0.37;100.00;99537.72;5119336;28;20430;-78
2021/12/18 05:18:58;;;;;;;83.38;22.70;;;;;;;-0.24;100.00;99532.53;5113873;28;20077;-79
2021/12/18 05:21:24;;;;;;;104.15;22.80;;;;;;;-0.29;100.00;99543.88;5113202;28;20023;-77
2021/12/18 05:23:49;;;;;;;82.63;23.27;;;;;;;-0.32;100.00;99544.25;5112942;28;20043;-80
2021/12/18 05:26:15;;;;;;;69.72;22.58;;;;;;;-0.27;100.00;99554.41;5112780;28;20388;-78
2021/12/18 05:28:41;;;;;;;142.25;23.23;;;;;;;-0.32;100.00;99552.31;5112341;28;20084;-77
2021/12/18 05:31:09;;;;;;;64.50;22.05;;;;;;;-0.41;100.00;99553.41;5112308;28;20373;-76
2021/12/18 05:33:35;;;;;;;159.60;24.90;;;;;;;-0.67;100.00;99548.50;5112177;28;20031;-75
2021/12/18 05:36:00;;;;;;;96.60;23.25;;;;;;;-0.46;100.00;99557.66;5112291;28;20036;-77
2021/12/18 05:38:26;;;;;;;87.82;24.98;;;;;;;-0.43;100.00;99559.97;5112128;28;20028;-78
2021/12/18 05:40:51;;;;;;;268.02;29.02;;;;;;;-0.75;100.00;99547.75;5112329;27;20027;-77
2021/12/18 05:43:16;;;;;;;206.27;26.25;;;;;;;-0.62;100.00;99550.63;5112592;28;20040;-77
2021/12/18 05:45:42;;;;;;;168.23;25.40;;;;;;;-0.66;100.00;99546.66;5110790;28;20039;-76
2021/12/18 05:48:07;;;;;;;98.72;27.40;;;;;;;-0.50;100.00;99561.75;5111865;28;20024;-76
2021/12/18 05:50:33;;;;;;;71.88;25.60;;;;;;;-0.42;100.00;99561.66;5110619;28;20035;-78
2021/12/18 05:53:00;;;;;;;114.30;25.58;;;;;;;-0.41;100.00;99564.16;5111799;28;20082;-77
2021/12/18 05:55:30;;;;;;;84.10;26.63;;;;;;;-0.48;100.00;99568.59;5098703;28;20028;-79
2021/12/18 05:57:55;;;;;;;84.63;24.98;;;;;;;-0.44;100.00;99556.47;5091472;28;20473;-77
2021/12/18 06:00:21;;;;;;;184.48;25.70;;;;;;;-0.46;100.00;99574.63;5091524;28;20032;-76
2021/12/18 06:02:47;;;;;;;99.78;23.10;;;;;;;-0.50;100.00;99583.25;5091290;28;20377;-76
2021/12/18 06:05:12;;;;;;;84.63;22.83;;;;;;;-0.46;100.00;99582.69;5091621;28;20388;-77
2021/12/18 06:10:20;;;;;;;84.63;24.50;;;;;;;-0.44;100.00;99594.09;5091490;28;20035;-76
2021/12/18 06:12:45;;;;;;;117.22;24.98;;;;;;;-0.34;100.00;99589.25;5091542;28;20085;-76
2021/12/18 06:15:10;;;;;;;65.18;21.20;;;;;;;-0.30;100.00;99579.81;5091546;28;20028;-73
2021/12/18 06:17:36;;;;;;;95.90;23.38;;;;;;;-0.35;100.00;99579.56;5090534;28;20738;-77
2021/12/18 06:20:01;;;;;;;106.03;23.25;;;;;;;-0.38;100.00;99588.00;5092571;28;20036;-77
2021/12/18 06:22:27;;;;;;;69.72;22.55;;;;;;;-0.36;100.00;99591.31;5096233;28;20036;-77
2021/12/18 06:24:52;;;;;;;72.30;21.65;;;;;;;-0.47;100.00;99586.38;5094982;28;20035;-75
2021/12/18 06:27:17;;;;;;;65.32;21.90;;;;;;;-0.38;100.00;99587.16;5090917;28;20424;-75
2021/12/18 06:29:43;;;;;;;51.95;20.88;;;;;;;-0.39;100.00;99586.31;5091051;28;20392;-76
2021/12/18 06:32:09;;;;;;;72.03;21.65;;;;;;;-0.34;100.00;99600.00;5090979;28;20047;-76
2021/12/18 06:34:35;;;;;;;219.70;25.83;;;;;;;-0.44;100.00;99594.09;5091300;28;20024;-75
2021/12/18 06:37:00;;;;;;;99.28;24.40;;;;;;;-0.47;100.00;99589.06;5091644;28;20008;-77
2021/12/18 06:39:26;;;;;;;116.85;25.67;;;;;;;-0.41;100.00;99584.84;5092105;28;20024;-79
2021/12/18 06:41:53;;;;;;;142.05;25.67;;;;;;;-0.37;100.00;99600.38;5092061;28;20037;-77
2021/12/18 06:44:19;;;;;;;85.47;22.88;;;;;;;-0.24;100.00;99599.75;5091224;28;20047;-73
2021/12/18 06:46:44;;;;;;;135.05;27.25;;;;;;;-0.30;100.00;99589.72;5092720;28;20131;-78
2021/12/18 06:49:12;;;;;;;72.07;25.58;;;;;;;-0.19;100.00;99598.16;5092727;28;20043;-77
2021/12/18 06:51:38;;;;;;;58.40;21.98;;;;;;;-0.09;100.00;99598.72;5091030;28;20032;-76
2021/12/18 06:54:04;;;;;;;56.92;22.00;;;;;;;-0.10;100.00;99607.81;5092766;28;20504;-79
2021/12/18 06:56:29;;;;;;;60.90;21.67;;;;;;;-0.18;100.00;99607.91;5111902;28;20027;-80
2021/12/18 06:58:54;;;;;;;116.05;23.52;;;;;;;-0.17;100.00;99604.19;5111473;28;20457;-76
2021/12/18 07:01:20;;;;;;;75.43;22.80;;;;;;;-0.26;100.00;99608.00;5112024;28;20476;-79
2021/12/18 07:03:45;;;;;;;87.32;21.92;;;;;;;-0.18;100.00;99621.34;5112129;28;20023;-76
2021/12/18 07:06:11;;;;;;;71.47;24.15;;;;;;;-0.17;100.00;99617.63;5112273;28;20115;-76
2021/12/18 07:08:36;;;;;;;67.63;23.42;;;;;;;-0.16;100.00;99630.03;5118959;28;20024;-74
2021/12/18 07:11:02;;;;;;;98.60;24.40;;;;;;;-0.16;100.00;99642.69;5114970;28;20028;-75
2021/12/18 07:13:28;;;;;;;58.00;22.73;;;;;;;-0.15;100.00;99636.25;5104131;28;20118;-75
2021/12/18 07:15:54;;;;;;;61.35;22.20;;;;;;;-0.14;100.00;99628.03;5109724;28;20023;-75
2021/12/18 07:18:19;;;;;;;68.00;23.33;;;;;;;-0.10;100.00;99640.09;5107713;28;20020;-76
2021/12/18 07:20:45;;;;;;;86.35;24.70;;;;;;;-0.21;100.00;99629.78;5105281;28;20015;-75
2021/12/18 07:23:10;;;;;;;76.07;23.40;;;;;;;-0.17;100.00;99638.31;5109556;28;20035;-75
2021/12/18 07:25:35;;;;;;;88.32;24.30;;;;;;;-0.22;100.00;99633.47;5106849;28;20504;-74
2021/12/18 07:28:01;;;;;;;107.15;26.45;;;;;;;-0.39;100.00;99634.69;5104340;28;20034;-75
2021/12/18 07:30:27;;;;;;;112.15;27.33;;;;;;;-0.30;100.00;99638.94;5103985;28;20472;-77
2021/12/18 07:32:52;;;;;;;124.10;28.83;;;;;;;-0.28;100.00;99639.59;5108018;28;20036;-77
2021/12/18 07:35:18;;;;;;;88.95;25.65;;;;;;;-0.20;100.00;99636.84;5108203;28;20062;-77
2021/12/18 07:37:44;;;;;;;86.75;25.13;;;;;;;-0.14;100.00;99646.84;5109415;28;20444;-76
2021/12/18 07:40:10;;;;;;;124.28;29.30;;;;;;;-0.05;100.00;99642.19;5111640;28;20380;-77
2021/12/18 07:42:36;;;;;;;116.10;29.63;;;;;;;-0.08;100.00;99637.19;5113092;28;20023;-76
2021/12/18 07:45:04;;;;;;;103.07;27.60;;;;;;;-0.05;100.00;99632.28;5114043;28;20106;-77
2021/12/18 07:47:30;;;;;;;161.45;29.85;;;;;;;-0.02;100.00;99642.66;5114036;28;20111;-75
2021/12/18 07:49:55;;;;;;;99.40;29.60;;;;;;;-0.08;100.00;99651.47;5114201;28;20110;-76
2021/12/18 07:52:21;;;;;;;107.55;27.00;;;;;;;0.05;100.00;99652.69;5112982;28;20054;-81
2021/12/18 07:54:47;;;;;;;103.65;26.23;;;;;;;0.00;100.00;99653.25;5113094;28;20476;-81
2021/12/18 07:57:13;;;;;;;76.20;25.10;;;;;;;-0.03;100.00;99654.44;5113464;28;20119;-77
2021/12/18 07:59:39;;;;;;;69.43;22.42;;;;;;;-0.07;100.00;99658.53;5111935;28;20027;-79
2021/12/18 08:02:05;;;;;;;85.55;26.48;;;;;;;-0.06;100.00;99660.19;5112240;28;20059;-76
2021/12/18 08:04:32;;;;;;;110.55;28.02;;;;;;;-0.03;100.00;99656.28;5108800;28;20426;-76
2021/12/18 08:06:57;;;;;;;139.98;27.70;;;;;;;0.02;100.00;99653.88;5108098;28;20484;-74
2021/12/18 08:09:23;;;;;;;124.05;28.85;;;;;;;0.07;100.00;99642.56;5105792;27;20031;-76
2021/12/18 08:11:48;;;;;;;82.10;25.50;;;;;;;0.09;100.00;99654.81;5105706;28;20007;-74
2021/12/18 08:14:13;;;;;;;86.43;26.67;;;;;;;0.11;100.00;99651.94;5103858;28;20469;-75
2021/12/18 08:16:39;;;;;;;96.97;28.35;;;;;;;0.09;100.00;99668.28;5103716;28;20022;-76
2021/12/18 08:19:04;;;;;;;109.50;29.50;;;;;;;0.13;100.00;99671.41;5113965;28;20015;-75
2021/12/18 08:21:30;;;;;;;92.72;28.08;;;;;;;0.07;100.00;99661.38;5113930;28;20024;-75
2021/12/18 08:23:55;;;;;;;112.47;28.95;;;;;;;0.15;100.00;99669.38;5113932;28;20108;-75
2021/12/18 08:26:20;;;;;;;133.80;31.85;;;;;;;-0.01;100.00;99682.00;5112538;28;20024;-76
2021/12/18 08:28:46;;;;;;;96.70;27.58;;;;;;;-0.17;100.00;99667.88;5112741;28;20035;-79
2021/12/18 08:31:11;;;;;;;121.20;30.67;;;;;;;-0.13;100.00;99667.34;5115534;28;20010;-76
2021/12/18 08:33:37;;;;;;;137.48;30.92;;;;;;;-0.15;100.00;99672.06;5118204;28;20388;-76
2021/12/18 08:36:02;;;;;;;142.57;33.17;;;;;;;-0.07;100.00;99671.13;5119468;28;20039;-76
2021/12/18 08:38:28;;;;;;;126.47;29.80;;;;;;;-0.14;100.00;99676.41;5116035;28;20024;-76
2021/12/18 08:40:54;;;;;;;86.93;28.83;;;;;;;-0.05;100.00;99679.84;5114878;28;20469;-77
2021/12/18 08:43:19;;;;;;;116.72;32.33;;;;;;;-0.15;100.00;99681.97;5107300;28;20023;-80
2021/12/18 08:45:45;;;;;;;113.55;33.63;;;;;;;-0.05;100.00;99677.16;5116014;28;20071;-77
2021/12/18 08:48:10;;;;;;;126.03;32.95;;;;;;;-0.15;100.00;99681.97;5117185;28;20028;-75
2021/12/18 08:50:36;;;;;;;107.70;29.98;;;;;;;-0.07;100.00;99685.44;5115793;28;20065;-76
2021/12/18 08:53:01;;;;;;;92.45;32.40;;;;;;;-0.02;100.00;99674.94;5113843;28;20047;-78
2021/12/18 08:55:27;;;;;;;99.32;29.65;;;;;;;0.09;100.00;99673.66;5111561;28;20024;-77
2021/12/18 08:57:52;;;;;;;118.28;31.42;;;;;;;-0.02;100.00;99680.31;5118893;28;20106;-76
2021/12/18 09:00:23;;;;;;;103.28;29.73;;;;;;;0.03;100.00;99690.53;5122835;28;20100;-83
2021/12/18 09:02:52;;;;;;;106.63;27.40;;;;;;;0.05;100.00;99687.63;5120025;28;20035;-76
2021/12/18 09:05:17;;;;;;;88.50;26.63;;;;;;;0.06;100.00;99682.09;5126767;28;20220;-79
2021/12/18 09:07:43;;;;;;;74.35;26.92;;;;;;;0.22;100.00;99689.13;5120902;28;20023;-78
2021/12/18 09:10:10;;;;;;;73.07;28.85;;;;;;;0.27;100.00;99687.56;5117666;28;20403;-80
2021/12/18 09:12:35;;;;;;;117.25;27.05;;;;;;;0.31;100.00;99685.31;5122411;28;20055;-83
2021/12/18 09:15:01;;;;;;;85.55;28.60;;;;;;;0.34;100.00;99685.78;5128495;28;20028;-83
2021/12/18 09:17:28;;;;;;;100.97;26.60;;;;;;;0.31;100.00;99685.31;5127115;28;20087;-82
2021/12/18 09:19:54;;;;;;;69.50;25.70;;;;;;;0.37;100.00;99676.50;5126338;28;20028;-80
2021/12/18 09:22:19;;;;;;;69.95;26.50;;;;;;;0.43;100.00;99678.44;5126202;28;20030;-83
2021/12/18 09:24:46;;;;;;;67.47;26.27;;;;;;;0.45;100.00;99687.16;5126752;28;20031;-83
2021/12/18 09:27:12;;;;;;;75.97;27.30;;;;;;;0.38;100.00;99683.53;5130093;28;20596;-81
2021/12/18 09:29:37;;;;;;;72.53;26.98;;;;;;;0.38;100.00;99688.91;5128447;28;20044;-80
2021/12/18 09:32:03;;;;;;;67.38;26.73;;;;;;;0.39;100.00;99687.91;5127462;28;20383;-82
2021/12/18 09:34:33;;;;;;;71.20;26.92;;;;;;;0.41;100.00;99675.09;5128605;28;20019;-79
2021/12/18 09:36:59;;;;;;;82.60;28.23;;;;;;;0.48;100.00;99681.38;5127799;28;20060;-81
2021/12/18 09:39:24;;;;;;;65.65;26.17;;;;;;;0.47;100.00;99679.75;5123169;27;20023;-79
2021/12/18 09:41:51;;;;;;;70.95;27.27;;;;;;;0.44;100.00;99680.09;5118345;28;20035;-79
2021/12/18 09:44:30;;;;;;;66.20;27.70;;;;;;;0.41;100.00;99669.69;5116196;28;20022;-82
2021/12/18 09:46:56;;;;;;;81.97;33.97;;;;;;;0.57;100.00;99668.66;5117690;28;20030;-76
2021/12/18 09:49:22;;;;;;;80.10;32.50;;;;;;;0.47;100.00;99677.06;5117143;28;20074;-80
2021/12/18 09:51:48;;;;;;;77.03;28.75;;;;;;;0.39;100.00;99666.38;5114867;28;20024;-82
2021/12/18 09:54:13;;;;;;;85.75;35.15;;;;;;;0.49;100.00;99664.22;5112887;28;20015;-76
2021/12/18 09:56:39;;;;;;;79.50;29.40;;;;;;;0.55;100.00;99663.47;5114936;28;20022;-75
2021/12/18 09:59:05;;;;;;;72.68;27.90;;;;;;;0.62;100.00;99664.38;5106851;28;20420;-76
2021/12/18 10:01:31;;;;;;;71.38;27.65;;;;;;;0.65;100.00;99660.47;5112509;28;20035;-77
2021/12/18 10:03:58;;;;;;;87.95;30.48;;;;;;;0.52;100.00;99655.78;5117234;28;20122;-82
2021/12/18 10:06:43;;;;;;;404.90;130.50;;;;;;;0.52;100.00;99653.09;5115724;28;20023;-77
2021/12/18 10:09:17;;;;;;;90.55;29.88;;;;;;;0.54;100.00;99659.09;5114429;28;20649;-77
2021/12/18 10:11:50;;;;;;;96.50;35.03;;;;;;;0.71;100.00;99665.09;5115238;28;20023;-81
2021/12/18 10:14:18;;;;;;;73.03;29.13;;;;;;;0.69;100.00;99670.66;5116123;28;20031;-81
2021/12/18 10:16:49;;;;;;;75.72;29.55;;;;;;;0.70;100.00;99669.66;5118523;28;20027;-83
2021/12/18 10:19:43;;;;;;;69.95;29.52;;;;;;;0.84;100.00;99665.25;5118997;28;20058;-80
2021/12/18 10:22:11;;;;;;;71.53;30.02;;;;;;;0.82;100.00;99668.13;5087521;28;20388;-78
2021/12/18 10:24:42;;;;;;;75.05;30.23;;;;;;;0.88;100.00;99667.34;5116404;28;20492;-79
2021/12/18 10:27:24;;;;;;;68.20;26.35;;;;;;;1.02;100.00;99661.09;5117451;28;20024;-77
2021/12/18 10:29:52;;;;;;;69.70;28.55;;;;;;;1.04;100.00;99659.03;5095534;28;20638;-76
2021/12/18 10:32:20;;;;;;;63.72;26.50;;;;;;;0.97;100.00;99666.22;5111440;28;20431;-76
2021/12/18 10:35:05;;;;;;;72.88;27.90;;;;;;;1.06;100.00;99664.25;5111442;28;20031;-76
2021/12/18 10:37:32;;;;;;;;;;;;;;;1.00;100.00;99660.44;5110925;28;20035;-78
2021/12/18 10:40:04;;;;;;;71.03;28.58;;;;;;;0.93;100.00;99656.88;5112215;28;19919;-79
2021/12/18 10:42:34;;;;;;;60.55;26.13;;;;;;;0.80;100.00;99654.03;5107399;28;20015;-77
2021/12/18 10:45:22;;;;;;;71.05;27.90;;;;;;;0.65;100.00;99645.16;5113233;28;20031;-78
2021/12/18 10:47:59;;;;;;;73.22;28.85;;;;;;;0.95;100.00;99656.66;5097381;28;20539;-78
2021/12/18 10:50:40;;;;;;;72.22;31.50;;;;;;;0.87;100.00;99649.56;5112774;28;20016;-75
2021/12/18 10:53:19;;;;;;;71.78;28.80;;;;;;;0.99;100.00;99652.56;5111389;28;20735;-77
2021/12/18 10:55:56;;;;;;;74.03;30.60;;;;;;;0.98;100.00;99654.41;5111975;28;20080;-76
2021/12/18 10:58:29;;;;;;;79.10;29.92;;;;;;;1.01;100.00;99651.34;5116937;28;20087;-75
2021/12/18 11:00:58;;;;;;;73.97;32.88;;;;;;;1.08;100.00;99640.63;5111041;28;20027;-74
2021/12/18 11:03:43;;;;;;;68.93;30.70;;;;;;;1.05;100.00;99644.56;5110737;28;20030;-76
2021/12/18 11:06:12;;;;;;;68.72;28.88;;;;;;;1.13;100.00;99638.19;5108628;28;20504;-75
2021/12/18 11:08:52;;;;;;;63.15;28.00;;;;;;;1.19;100.00;99636.59;5110331;28;20062;-75
2021/12/18 11:14:02;;;;;;;63.65;27.60;;;;;;;1.12;100.00;99624.91;5113068;28;20070;-76
2021/12/18 11:16:28;;;;;;;62.17;26.85;;;;;;;1.06;100.00;99616.59;5113810;28;20048;-76
2021/12/18 11:18:55;;;;;;;62.15;27.13;;;;;;;1.11;100.00;99626.78;5116923;28;20016;-76
2021/12/18 11:21:24;;;;;;;64.38;27.92;;;;;;;1.07;100.00;99625.47;5118156;27;20053;-75
2021/12/18 11:24:06;;;;;;;68.18;27.75;;;;;;;1.02;100.00;99618.00;5100688;28;20055;-76
2021/12/18 11:26:41;;;;;;;60.90;29.20;;;;;;;1.12;100.00;99620.38;5117389;28;20102;-81
2021/12/18 11:29:12;;;;;;;62.10;28.83;;;;;;;1.28;100.00;99616.56;5116230;28;20032;-76
2021/12/18 11:31:40;;;;;;;75.13;28.98;;;;;;;1.10;100.00;99610.81;5113924;28;20492;-77
2021/12/18 11:34:06;;;;;;;59.55;27.10;;;;;;;1.13;100.00;99615.81;5115367;28;20046;-73
2021/12/18 11:36:32;;;;;;;62.72;27.98;;;;;;;1.08;100.00;99611.84;5115161;28;20012;-76
2021/12/18 11:38:58;;;;;;;62.63;28.75;;;;;;;0.97;100.00;99598.06;5115675;28;20020;-74
2021/12/18 11:41:24;;;;;;;65.43;29.65;;;;;;;1.11;100.00;99599.84;5109041;28;20028;-75
2021/12/18 11:43:50;;;;;;;63.92;29.08;;;;;;;1.18;100.00;99607.97;5107431;28;20066;-76
2021/12/18 11:46:32;;;;;;;60.92;28.13;;;;;;;1.04;100.00;99609.72;5115475;28;20480;-76
2021/12/18 11:49:01;;;;;;;57.67;26.13;;;;;;;1.07;100.00;99607.47;5108899;28;20022;-76
2021/12/18 11:51:28;;;;;;;57.72;28.42;;;;;;;1.00;100.00;99609.25;5109936;28;20107;-75
2021/12/18 11:53:54;;;;;;;65.13;29.65;;;;;;;1.20;100.00;99611.28;5112205;28;20047;-77
2021/12/18 11:56:19;;;;;;;64.85;26.10;;;;;;;1.19;100.00;99606.97;5112213;28;20027;-74
2021/12/18 11:58:47;;;;;;;61.17;29.67;;;;;;;1.16;100.00;99604.66;5111777;28;20028;-73
2021/12/18 12:01:17;;;;;;;59.58;28.00;;;;;;;1.00;100.00;99593.09;5111854;28;20031;-72
2021/12/18 12:03:51;;;;;;;59.72;27.13;;;;;;;1.04;100.00;99586.31;5111501;28;20110;-74